Time;durP1;ratioP1;P1;durP2;ratioP2;P2;SDS_P1;SDS_P2;PMS_P1;PMS_P2;Temp;Humidity;BMP_temperature;BMP_pressure;BME280_temperature;BME280_humidity;BME280_pressure;Samples;Min_cycle;Max_cycle;Signal;HPM_P1;HPM_P2
2023/05/04 00:00:08;;;;;;;;;;;;;;;;;;1041487;28;2864;-54
2023/05/04 00:00:47;;;;;;;;;;;;;;;;;;1042502;28;4251;-50
2023/05/04 00:01:18;;;;;;;;;;;;;;;;;;1043469;28;1647;-51
2023/05/04 00:01:48;;;;;;;;;;;;;;;;;;1039148;28;4076;-52
2023/05/04 00:02:18;;;;;;;;;;;;;;;;;;1041768;28;3346;-46
2023/05/04 00:02:49;;;;;;;;;;;;;;;;;;1040350;28;4003;-52
2023/05/04 00:03:19;;;;;;;;;;;;;;;;;;1041770;28;3046;-50
2023/05/04 00:03:49;;;;;;;;;;;;;;;;;;1040987;28;3768;-49
2023/05/04 00:04:20;;;;;;;;;;;;;;;;;;1041818;28;3000;-54
2023/05/04 00:04:50;;;;;;;;;;;;;;;;;;1041795;28;4004;-53
2023/05/04 00:05:21;;;;;;;;;;;;;;;;;;1043491;28;1608;-50
2023/05/04 00:05:51;;;;;;;;;;;;;;;;;;1040929;28;3953;-51
2023/05/04 00:06:21;;;;;;;;;;;;;;;;;;1040570;28;2940;-55
2023/05/04 00:06:51;;;;;;;;;;;;;;;;;;1043078;28;4049;-52
2023/05/04 00:07:22;;;;;;;;;;;;;;;;;;1043215;28;1870;-51
2023/05/04 00:07:52;;;;;;;;;;;;;;;;;;1040361;28;4400;-52
2023/05/04 00:08:22;;;;;;;;;;;;;;;;;;1041714;28;3241;-50
2023/05/04 00:08:52;;;;;;;;;;;;;;;;;;1041785;28;3960;-53
2023/05/04 00:09:23;;;;;;;;;;;;;;;;;;1042871;28;1855;-51
2023/05/04 00:09:53;;;;;;;;;;;;;;;;;;1042400;28;3877;-55
2023/05/04 00:10:23;;;;;;;;;;;;;;;;;;1042386;28;3167;-52
2023/05/04 00:10:55;;;;;;;;;;;;;;;;;;1042744;28;3942;-50
2023/05/04 00:11:25;;;;;;;;;;;;;;;;;;1042326;28;3592;-52
2023/05/04 00:11:56;;;;;;;;;;;;;;;;;;1041719;28;3956;-53
2023/05/04 00:12:27;;;;;;;;;;;;;;;;;;1042725;28;3282;-50
2023/05/04 00:12:57;;;;;;;;;;;;;;;;;;1042231;28;4455;-49
2023/05/04 00:13:27;;;;;;;;;;;;;;;;;;1041365;28;2937;-52
2023/05/04 00:13:58;;;;;;;;;;;;;;;;;;1042951;28;3991;-49
2023/05/04 00:14:28;;;;;;;;;;;;;;;;;;1040770;28;2440;-55
2023/05/04 00:14:58;;;;;;;;;;;;;;;;;;1043115;28;3892;-49
2023/05/04 00:15:29;;;;;;;;;;;;;;;;;;1043300;28;1612;-51
2023/05/04 00:15:59;;;;;;;;;;;;;;;;;;1041025;28;4385;-51
2023/05/04 00:16:29;;;;;;;;;;;;;;;;;;1042475;28;2850;-50
2023/05/04 00:17:01;;;;;;;;;;;;;;;;;;1040573;28;3899;-50
2023/05/04 00:17:32;;;;;;;;;;;;;;;;;;1042233;28;2924;-49
2023/05/04 00:18:02;;;;;;;;;;;;;;;;;;1042017;28;3740;-51
2023/05/04 00:18:32;;;;;;;;;;;;;;;;;;1042375;28;1756;-53
2023/05/04 00:19:03;;;;;;;;;;;;;;;;;;1041665;28;3910;-52
2023/05/04 00:19:33;;;;;;;;;;;;;;;;;;1043227;28;3829;-48
2023/05/04 00:20:04;;;;;;;;;;;;;;;;;;1040880;28;1853;-51
2023/05/04 00:20:34;;;;;;;;;;;;;;;;;;1041018;28;3807;-50
2023/05/04 00:21:05;;;;;;;;;;;;;;;;;;1042832;28;2773;-49
2023/05/04 00:21:35;;;;;;;;;;;;;;;;;;1041633;28;4782;-49
2023/05/04 00:22:05;;;;;;;;;;;;;;;;;;1043163;28;1816;-47
2023/05/04 00:22:36;;;;;;;;;;;;;;;;;;1042273;28;4163;-51
2023/05/04 00:23:06;;;;;;;;;;;;;;;;;;1041721;28;4848;-49
2023/05/04 00:23:36;;;;;;;;;;;;;;;;;;1042524;28;3787;-50
2023/05/04 00:24:06;;;;;;;;;;;;;;;;;;1042580;28;1923;-54
2023/05/04 00:24:37;;;;;;;;;;;;;;;;;;1043076;28;3899;-48
2023/05/04 00:25:07;;;;;;;;;;;;;;;;;;1043180;28;1675;-50
2023/05/04 00:25:38;;;;;;;;;;;;;;;;;;1040809;28;4435;-52
2023/05/04 00:26:08;;;;;;;;;;;;;;;;;;1041092;28;1703;-49
2023/05/04 00:26:38;;;;;;;;;;;;;;;;;;1046383;28;3828;-49
2023/05/04 00:27:09;;;;;;;;;;;;;;;;;;1047013;28;1849;-55
2023/05/04 00:27:39;;;;;;;;;;;;;;;;;;1046150;28;3918;-54
2023/05/04 00:28:10;;;;;;;;;;;;;;;;;;1051123;28;1696;-52
2023/05/04 00:28:40;;;;;;;;;;;;;;;;;;1040482;28;3789;-51
2023/05/04 00:29:10;;;;;;;;;;;;;;;;;;1043196;28;1652;-50
2023/05/04 00:29:41;;;;;;;;;;;;;;;;;;1042553;28;4063;-50
2023/05/04 00:30:11;;;;;;;;;;;;;;;;;;1042614;28;1676;-52
2023/05/04 00:30:41;;;;;;;;;;;;;;;;;;1042050;28;3913;-49
2023/05/04 00:31:11;;;;;;;;;;;;;;;;;;1043557;28;1933;-52
2023/05/04 00:31:42;;;;;;;;;;;;;;;;;;1040622;28;3817;-51
2023/05/04 00:32:12;;;;;;;;;;;;;;;;;;1043466;28;1654;-49
2023/05/04 00:32:42;;;;;;;;;;;;;;;;;;1042943;28;4094;-54
2023/05/04 00:33:13;;;;;;;;;;;;;;;;;;1043029;28;1886;-52
2023/05/04 00:33:43;;;;;;;;;;;;;;;;;;1042664;28;5093;-53
2023/05/04 00:34:14;;;;;;;;;;;;;;;;;;1042191;28;1689;-52
2023/05/04 00:34:44;;;;;;;;;;;;;;;;;;1042826;28;3788;-53
2023/05/04 00:35:15;;;;;;;;;;;;;;;;;;1043089;28;1770;-48
2023/05/04 00:35:45;;;;;;;;;;;;;;;;;;1041914;28;3801;-55
2023/05/04 00:36:15;;;;;;;;;;;;;;;;;;1042534;28;2932;-53
2023/05/04 00:36:46;;;;;;;;;;;;;;;;;;1043016;28;4064;-53
2023/05/04 00:37:16;;;;;;;;;;;;;;;;;;1041728;28;1755;-52
2023/05/04 00:37:46;;;;;;;;;;;;;;;;;;1042509;28;3816;-53
2023/05/04 00:38:18;;;;;;;;;;;;;;;;;;1041775;28;3204;-53
2023/05/04 00:38:52;;;;;;;;;;;;;;;;;;1040983;28;4069;-53
2023/05/04 00:39:22;;;;;;;;;;;;;;;;;;1042704;28;1966;-54
2023/05/04 00:39:53;;;;;;;;;;;;;;;;;;1042426;28;3963;-53
2023/05/04 00:40:23;;;;;;;;;;;;;;;;;;1042681;28;1892;-51
2023/05/04 00:40:53;;;;;;;;;;;;;;;;;;1041668;28;4086;-51
2023/05/04 00:41:23;;;;;;;;;;;;;;;;;;1042494;28;2941;-53
2023/05/04 00:41:54;;;;;;;;;;;;;;;;;;1037758;28;4070;-54
2023/05/04 00:42:25;;;;;;;;;;;;;;;;;;1038879;28;1615;-49
2023/05/04 00:42:55;;;;;;;;;;;;;;;;;;1042292;28;3893;-50
2023/05/04 00:43:25;;;;;;;;;;;;;;;;;;1042268;28;1691;-54
2023/05/04 00:43:55;;;;;;;;;;;;;;;;;;1046340;28;3741;-54
2023/05/04 00:44:26;;;;;;;;;;;;;;;;;;1046470;28;1746;-50
2023/05/04 00:44:56;;;;;;;;;;;;;;;;;;1046083;28;3834;-51
2023/05/04 00:45:26;;;;;;;;;;;;;;;;;;1040844;28;3572;-51
2023/05/04 00:45:57;;;;;;;;;;;;;;;;;;1041220;28;3899;-52
2023/05/04 00:46:27;;;;;;;;;;;;;;;;;;1041150;28;2926;-54
2023/05/04 00:46:57;;;;;;;;;;;;;;;;;;1040618;28;3844;-51
2023/05/04 00:47:28;;;;;;;;;;;;;;;;;;1041703;28;2822;-52
2023/05/04 00:47:59;;;;;;;;;;;;;;;;;;1042480;28;3763;-51
2023/05/04 00:48:29;;;;;;;;;;;;;;;;;;1041623;28;1719;-54
2023/05/04 00:49:00;;;;;;;;;;;;;;;;;;1042006;28;3771;-56
2023/05/04 00:49:31;;;;;;;;;;;;;;;;;;1041580;28;3015;-51
2023/05/04 00:50:02;;;;;;;;;;;;;;;;;;1041886;28;3738;-51
2023/05/04 00:50:33;;;;;;;;;;;;;;;;;;1042527;28;1888;-53
2023/05/04 00:51:05;;;;;;;;;;;;;;;;;;1040343;28;3728;-49
2023/05/04 00:51:35;;;;;;;;;;;;;;;;;;1041632;28;3892;-49
2023/05/04 00:52:06;;;;;;;;;;;;;;;;;;1046698;28;1682;-52
2023/05/04 00:52:38;;;;;;;;;;;;;;;;;;1046806;28;4060;-54
2023/05/04 00:53:09;;;;;;;;;;;;;;;;;;1045695;28;2954;-53
2023/05/04 00:53:40;;;;;;;;;;;;;;;;;;1044073;28;3991;-49
2023/05/04 00:54:10;;;;;;;;;;;;;;;;;;1045023;28;1819;-51
2023/05/04 00:54:41;;;;;;;;;;;;;;;;;;1046220;28;3990;-50
2023/05/04 00:55:13;;;;;;;;;;;;;;;;;;1047214;28;1675;-50
2023/05/04 00:55:43;;;;;;;;;;;;;;;;;;1044290;28;3809;-54
2023/05/04 00:56:14;;;;;;;;;;;;;;;;;;1046218;28;3360;-54
2023/05/04 00:56:44;;;;;;;;;;;;;;;;;;1046879;28;4018;-50
2023/05/04 00:57:15;;;;;;;;;;;;;;;;;;1046192;28;2968;-50
2023/05/04 00:57:47;;;;;;;;;;;;;;;;;;1046367;28;3842;-52
2023/05/04 00:58:17;;;;;;;;;;;;;;;;;;1044940;28;3179;-51
2023/05/04 00:58:48;;;;;;;;;;;;;;;;;;1045987;28;3779;-51
2023/05/04 00:59:18;;;;;;;;;;;;;;;;;;1045324;28;2898;-53
2023/05/04 00:59:48;;;;;;;;;;;;;;;;;;1045861;28;3775;-51
2023/05/04 01:00:19;;;;;;;;;;;;;;;;;;1044956;28;3269;-49
2023/05/04 01:00:49;;;;;;;;;;;;;;;;;;1044761;28;3787;-52
2023/05/04 01:01:20;;;;;;;;;;;;;;;;;;1046871;28;1876;-54
2023/05/04 01:01:51;;;;;;;;;;;;;;;;;;1044999;28;4076;-52
2023/05/04 01:02:21;;;;;;;;;;;;;;;;;;1044955;28;2989;-53
2023/05/04 01:02:51;;;;;;;;;;;;;;;;;;1052667;28;3889;-53
2023/05/04 01:03:21;;;;;;;;;;;;;;;;;;1055195;28;1974;-48
2023/05/04 01:03:53;;;;;;;;;;;;;;;;;;1054832;28;3881;-52
2023/05/04 01:04:24;;;;;;;;;;;;;;;;;;1053481;28;2785;-48
2023/05/04 01:04:54;;;;;;;;;;;;;;;;;;1045061;28;4141;-51
2023/05/04 01:05:26;;;;;;;;;;;;;;;;;;1045563;28;2570;-50
2023/05/04 01:06:02;;;;;;;;;;;;;;;;;;1046851;28;3896;-53
2023/05/04 01:06:42;;;;;;;;;;;;;;;;;;1044749;28;2849;-51
2023/05/04 01:07:16;;;;;;;;;;;;;;;;;;1046649;28;3723;-56
2023/05/04 01:07:55;;;;;;;;;;;;;;;;;;1043912;28;3816;-49
2023/05/04 01:08:28;;;;;;;;;;;;;;;;;;1038991;28;3070;-51
2023/05/04 01:09:15;;;;;;;;;;;;;;;;;;1041584;28;3877;-52
2023/05/04 01:09:48;;;;;;;;;;;;;;;;;;1042482;28;4090;-56
2023/05/04 01:10:22;;;;;;;;;;;;;;;;;;1041491;28;2921;-54
2023/05/04 01:10:52;;;;;;;;;;;;;;;;;;1039897;28;4157;-48
2023/05/04 01:11:28;;;;;;;;;;;;;;;;;;1041978;28;1737;-55
2023/05/04 01:12:02;;;;;;;;;;;;;;;;;;1040995;28;3973;-52
2023/05/04 01:12:34;;;;;;;;;;;;;;;;;;1039974;28;3519;-53
2023/05/04 01:13:09;;;;;;;;;;;;;;;;;;1045747;28;3846;-50
2023/05/04 01:13:40;;;;;;;;;;;;;;;;;;1043495;28;3813;-53
2023/05/04 01:14:11;;;;;;;;;;;;;;;;;;1047020;28;1814;-50
2023/05/04 01:14:42;;;;;;;;;;;;;;;;;;1046132;28;3774;-49
2023/05/04 01:15:13;;;;;;;;;;;;;;;;;;1046762;28;1440;-54
2023/05/04 01:15:43;;;;;;;;;;;;;;;;;;1045960;28;4072;-52
2023/05/04 01:16:13;;;;;;;;;;;;;;;;;;1045890;28;2829;-52
2023/05/04 01:16:44;;;;;;;;;;;;;;;;;;1046048;28;3835;-50
2023/05/04 01:17:14;;;;;;;;;;;;;;;;;;1046603;28;1741;-49
2023/05/04 01:17:44;;;;;;;;;;;;;;;;;;1046741;28;3996;-51
2023/05/04 01:18:15;;;;;;;;;;;;;;;;;;1047060;28;2115;-54
2023/05/04 01:18:45;;;;;;;;;;;;;;;;;;1045406;28;3939;-50
2023/05/04 01:19:15;;;;;;;;;;;;;;;;;;1046738;28;1985;-52
2023/05/04 01:19:46;;;;;;;;;;;;;;;;;;1046562;28;3965;-48
2023/05/04 01:20:17;;;;;;;;;;;;;;;;;;1046454;28;1886;-51
2023/05/04 01:20:47;;;;;;;;;;;;;;;;;;1046673;28;4051;-50
2023/05/04 01:21:17;;;;;;;;;;;;;;;;;;1047408;28;1914;-50
2023/05/04 01:21:47;;;;;;;;;;;;;;;;;;1046156;28;4106;-50
2023/05/04 01:22:18;;;;;;;;;;;;;;;;;;1046576;28;1878;-51
2023/05/04 01:22:48;;;;;;;;;;;;;;;;;;1044786;28;4090;-54
2023/05/04 01:23:19;;;;;;;;;;;;;;;;;;1046930;28;1760;-51
2023/05/04 01:23:50;;;;;;;;;;;;;;;;;;1046408;28;3885;-52
2023/05/04 01:24:20;;;;;;;;;;;;;;;;;;1046494;28;1658;-51
2023/05/04 01:24:50;;;;;;;;;;;;;;;;;;1046725;28;4044;-49
2023/05/04 01:25:22;;;;;;;;;;;;;;;;;;1046489;28;1841;-50
2023/05/04 01:25:55;;;;;;;;;;;;;;;;;;1044530;28;3981;-52
2023/05/04 01:26:27;;;;;;;;;;;;;;;;;;1046650;28;2744;-48
2023/05/04 01:27:03;;;;;;;;;;;;;;;;;;1046453;28;4087;-47
2023/05/04 01:27:41;;;;;;;;;;;;;;;;;;1046610;28;3847;-53
2023/05/04 01:28:15;;;;;;;;;;;;;;;;;;1044860;28;1848;-55
2023/05/04 01:28:54;;;;;;;;;;;;;;;;;;1044626;28;3949;-52
2023/05/04 01:29:33;;;;;;;;;;;;;;;;;;1046213;28;1875;-51
2023/05/04 01:30:04;;;;;;;;;;;;;;;;;;1046565;28;3813;-49
2023/05/04 01:30:36;;;;;;;;;;;;;;;;;;1046304;28;3970;-56
2023/05/04 01:31:08;;;;;;;;;;;;;;;;;;1044690;28;2916;-52
2023/05/04 01:31:38;;;;;;;;;;;;;;;;;;1045557;28;3971;-51
2023/05/04 01:32:10;;;;;;;;;;;;;;;;;;1042126;28;2136;-51
2023/05/04 01:32:41;;;;;;;;;;;;;;;;;;1041087;28;4062;-50
2023/05/04 01:33:12;;;;;;;;;;;;;;;;;;1043139;28;1602;-50
2023/05/04 01:33:43;;;;;;;;;;;;;;;;;;1042043;28;4411;-53
2023/05/04 01:34:15;;;;;;;;;;;;;;;;;;1043095;28;1732;-49
2023/05/04 01:34:45;;;;;;;;;;;;;;;;;;1040970;28;3804;-54
2023/05/04 01:35:16;;;;;;;;;;;;;;;;;;1043185;28;1626;-52
2023/05/04 01:35:46;;;;;;;;;;;;;;;;;;1042199;28;4079;-52
2023/05/04 01:36:18;;;;;;;;;;;;;;;;;;1041894;28;2888;-50
2023/05/04 01:36:48;;;;;;;;;;;;;;;;;;1041515;28;4076;-53
2023/05/04 01:37:18;;;;;;;;;;;;;;;;;;1042885;28;1879;-49
2023/05/04 01:37:49;;;;;;;;;;;;;;;;;;1042380;28;4051;-54
2023/05/04 01:38:19;;;;;;;;;;;;;;;;;;1041755;28;2072;-53
2023/05/04 01:38:53;;;;;;;;;;;;;;;;;;1041886;28;3998;-55
2023/05/04 01:39:24;;;;;;;;;;;;;;;;;;1043121;28;1906;-49
2023/05/04 01:39:54;;;;;;;;;;;;;;;;;;1040788;28;4155;-53
2023/05/04 01:40:24;;;;;;;;;;;;;;;;;;1042617;28;3314;-52
2023/05/04 01:40:55;;;;;;;;;;;;;;;;;;1042250;28;4054;-51
2023/05/04 01:41:26;;;;;;;;;;;;;;;;;;1042245;28;1995;-52
2023/05/04 01:41:56;;;;;;;;;;;;;;;;;;1041333;28;3845;-51
2023/05/04 01:42:26;;;;;;;;;;;;;;;;;;1040502;28;2953;-51
2023/05/04 01:42:57;;;;;;;;;;;;;;;;;;1041235;28;4130;-53
2023/05/04 01:43:27;;;;;;;;;;;;;;;;;;1041264;28;1727;-51
2023/05/04 01:43:57;;;;;;;;;;;;;;;;;;1040915;28;3814;-53
2023/05/04 01:44:28;;;;;;;;;;;;;;;;;;1041973;28;1809;-52
2023/05/04 01:44:58;;;;;;;;;;;;;;;;;;1042528;28;3778;-50
2023/05/04 01:45:28;;;;;;;;;;;;;;;;;;1041954;28;1807;-52
2023/05/04 01:45:58;;;;;;;;;;;;;;;;;;1041576;28;3734;-54
2023/05/04 01:46:29;;;;;;;;;;;;;;;;;;1041696;28;2330;-51
2023/05/04 01:46:59;;;;;;;;;;;;;;;;;;1040160;28;4003;-51
2023/05/04 01:47:29;;;;;;;;;;;;;;;;;;1040066;28;4140;-53
2023/05/04 01:48:00;;;;;;;;;;;;;;;;;;1041529;28;3906;-51
2023/05/04 01:48:30;;;;;;;;;;;;;;;;;;1042356;28;1842;-50
2023/05/04 01:49:00;;;;;;;;;;;;;;;;;;1042589;28;3740;-49
2023/05/04 01:49:30;;;;;;;;;;;;;;;;;;1042011;28;2910;-50
2023/05/04 01:50:01;;;;;;;;;;;;;;;;;;1041679;28;3905;-48
2023/05/04 01:50:31;;;;;;;;;;;;;;;;;;1040869;28;2983;-50
2023/05/04 01:51:02;;;;;;;;;;;;;;;;;;1040708;28;3716;-53
2023/05/04 01:51:32;;;;;;;;;;;;;;;;;;1040911;28;3245;-48
2023/05/04 01:52:02;;;;;;;;;;;;;;;;;;1041472;28;3903;-52
2023/05/04 01:52:32;;;;;;;;;;;;;;;;;;1041382;28;2943;-50
2023/05/04 01:53:03;;;;;;;;;;;;;;;;;;1049880;28;3865;-53
2023/05/04 01:53:33;;;;;;;;;;;;;;;;;;1050492;28;4127;-48
2023/05/04 01:54:03;;;;;;;;;;;;;;;;;;1049149;28;2870;-52
2023/05/04 01:54:34;;;;;;;;;;;;;;;;;;1046151;28;3879;-53
2023/05/04 01:55:04;;;;;;;;;;;;;;;;;;1042345;28;1938;-50
2023/05/04 01:55:34;;;;;;;;;;;;;;;;;;1041736;28;4057;-49
2023/05/04 01:56:06;;;;;;;;;;;;;;;;;;1040645;28;3026;-48
2023/05/04 01:56:37;;;;;;;;;;;;;;;;;;1041292;28;3863;-53
2023/05/04 01:57:07;;;;;;;;;;;;;;;;;;1042559;28;1917;-49
2023/05/04 01:57:37;;;;;;;;;;;;;;;;;;1042455;28;3963;-53
2023/05/04 01:58:07;;;;;;;;;;;;;;;;;;1040028;28;2872;-48
2023/05/04 01:58:38;;;;;;;;;;;;;;;;;;1042703;28;4036;-50
2023/05/04 01:59:08;;;;;;;;;;;;;;;;;;1042273;28;2138;-52
2023/05/04 01:59:38;;;;;;;;;;;;;;;;;;1042527;28;4179;-50
2023/05/04 02:00:09;;;;;;;;;;;;;;;;;;1040395;28;2980;-55
2023/05/04 02:00:39;;;;;;;;;;;;;;;;;;1039818;28;4542;-54
2023/05/04 02:01:09;;;;;;;;;;;;;;;;;;1043217;28;1621;-50
2023/05/04 02:01:40;;;;;;;;;;;;;;;;;;1040842;28;3824;-52
2023/05/04 02:02:10;;;;;;;;;;;;;;;;;;1040952;28;2908;-48
2023/05/04 02:02:41;;;;;;;;;;;;;;;;;;1037842;28;3875;-51
2023/05/04 02:03:11;;;;;;;;;;;;;;;;;;1042558;28;1680;-47
2023/05/04 02:03:41;;;;;;;;;;;;;;;;;;1041663;28;3957;-54
2023/05/04 02:04:12;;;;;;;;;;;;;;;;;;1041668;28;2925;-50
2023/05/04 02:04:42;;;;;;;;;;;;;;;;;;1042287;28;3845;-52
2023/05/04 02:05:12;;;;;;;;;;;;;;;;;;1043742;28;2035;-52
2023/05/04 02:05:43;;;;;;;;;;;;;;;;;;1042810;28;5138;-55
2023/05/04 02:06:13;;;;;;;;;;;;;;;;;;1041816;28;3107;-51
2023/05/04 02:06:43;;;;;;;;;;;;;;;;;;1041104;28;3938;-53
2023/05/04 02:07:13;;;;;;;;;;;;;;;;;;1041945;28;2868;-49
2023/05/04 02:07:44;;;;;;;;;;;;;;;;;;1043174;28;4048;-50
2023/05/04 02:08:14;;;;;;;;;;;;;;;;;;1043671;28;1743;-49
2023/05/04 02:08:45;;;;;;;;;;;;;;;;;;1043129;28;4085;-50
2023/05/04 02:09:15;;;;;;;;;;;;;;;;;;1043428;28;1690;-52
2023/05/04 02:09:45;;;;;;;;;;;;;;;;;;1043083;28;3965;-50
2023/05/04 02:10:15;;;;;;;;;;;;;;;;;;1043384;28;2141;-49
2023/05/04 02:10:46;;;;;;;;;;;;;;;;;;1041810;28;4080;-52
2023/05/04 02:11:17;;;;;;;;;;;;;;;;;;1041632;28;2997;-54
2023/05/04 02:11:47;;;;;;;;;;;;;;;;;;1042023;28;3921;-53
2023/05/04 02:12:17;;;;;;;;;;;;;;;;;;1041691;28;2016;-53
2023/05/04 02:12:48;;;;;;;;;;;;;;;;;;1040630;28;4140;-50
2023/05/04 02:13:18;;;;;;;;;;;;;;;;;;1042843;28;1701;-53
2023/05/04 02:13:48;;;;;;;;;;;;;;;;;;1043606;28;4031;-49
2023/05/04 02:14:19;;;;;;;;;;;;;;;;;;1042978;28;1674;-52
2023/05/04 02:14:50;;;;;;;;;;;;;;;;;;1043231;28;4259;-49
2023/05/04 02:15:20;;;;;;;;;;;;;;;;;;1040747;28;2962;-49
2023/05/04 02:15:50;;;;;;;;;;;;;;;;;;1043599;28;4056;-54
2023/05/04 02:16:21;;;;;;;;;;;;;;;;;;1041862;28;2986;-50
2023/05/04 02:16:51;;;;;;;;;;;;;;;;;;1042751;28;4088;-51
2023/05/04 02:17:21;;;;;;;;;;;;;;;;;;1042094;28;2936;-53
2023/05/04 02:17:51;;;;;;;;;;;;;;;;;;1043536;28;3971;-55
2023/05/04 02:18:22;;;;;;;;;;;;;;;;;;1041993;28;2961;-49
2023/05/04 02:18:52;;;;;;;;;;;;;;;;;;1043423;28;4002;-52
2023/05/04 02:19:22;;;;;;;;;;;;;;;;;;1041499;28;1968;-51
2023/05/04 02:19:52;;;;;;;;;;;;;;;;;;1042528;28;3782;-51
2023/05/04 02:20:23;;;;;;;;;;;;;;;;;;1043368;28;1983;-49
2023/05/04 02:20:53;;;;;;;;;;;;;;;;;;1042791;28;3970;-52
2023/05/04 02:21:23;;;;;;;;;;;;;;;;;;1042666;28;2834;-53
2023/05/04 02:21:53;;;;;;;;;;;;;;;;;;1040400;28;4400;-51
2023/05/04 02:22:24;;;;;;;;;;;;;;;;;;1040769;28;2942;-50
2023/05/04 02:22:54;;;;;;;;;;;;;;;;;;1040494;28;3947;-47
2023/05/04 02:23:25;;;;;;;;;;;;;;;;;;1044050;28;2113;-49
2023/05/04 02:23:55;;;;;;;;;;;;;;;;;;1042907;28;4087;-50
2023/05/04 02:24:25;;;;;;;;;;;;;;;;;;1042328;28;2866;-52
2023/05/04 02:24:55;;;;;;;;;;;;;;;;;;1041749;28;3872;-50
2023/05/04 02:25:26;;;;;;;;;;;;;;;;;;1043520;28;1675;-53
2023/05/04 02:25:56;;;;;;;;;;;;;;;;;;1041235;28;3938;-50
2023/05/04 02:26:26;;;;;;;;;;;;;;;;;;1043158;28;3059;-53
2023/05/04 02:26:57;;;;;;;;;;;;;;;;;;1043600;28;4038;-52
2023/05/04 02:27:27;;;;;;;;;;;;;;;;;;1042796;28;1792;-52
2023/05/04 02:27:57;;;;;;;;;;;;;;;;;;1041943;28;3840;-50
2023/05/04 02:28:28;;;;;;;;;;;;;;;;;;1043494;28;1800;-53
2023/05/04 02:28:58;;;;;;;;;;;;;;;;;;1043016;28;4036;-53
2023/05/04 02:29:28;;;;;;;;;;;;;;;;;;1043563;28;1838;-55
2023/05/04 02:29:59;;;;;;;;;;;;;;;;;;1041506;28;3881;-51
2023/05/04 02:30:29;;;;;;;;;;;;;;;;;;1039686;28;2419;-53
2023/05/04 02:30:59;;;;;;;;;;;;;;;;;;1041387;28;4118;-50
2023/05/04 02:31:30;;;;;;;;;;;;;;;;;;1041354;28;1976;-53
2023/05/04 02:32:01;;;;;;;;;;;;;;;;;;1040416;28;3749;-53
2023/05/04 02:32:31;;;;;;;;;;;;;;;;;;1043052;28;1576;-52
2023/05/04 02:33:01;;;;;;;;;;;;;;;;;;1040808;28;3928;-52
2023/05/04 02:33:32;;;;;;;;;;;;;;;;;;1043206;28;3205;-52
2023/05/04 02:34:02;;;;;;;;;;;;;;;;;;1041731;28;4826;-52
2023/05/04 02:34:34;;;;;;;;;;;;;;;;;;1043260;28;1652;-53
2023/05/04 02:35:04;;;;;;;;;;;;;;;;;;1047219;28;3793;-52
2023/05/04 02:35:34;;;;;;;;;;;;;;;;;;1046854;28;4012;-52
2023/05/04 02:36:05;;;;;;;;;;;;;;;;;;1045111;28;1844;-50
2023/05/04 02:36:35;;;;;;;;;;;;;;;;;;1047313;28;3870;-48
2023/05/04 02:37:05;;;;;;;;;;;;;;;;;;1047040;28;1747;-49
2023/05/04 02:37:36;;;;;;;;;;;;;;;;;;1046619;28;3910;-52
2023/05/04 02:38:06;;;;;;;;;;;;;;;;;;1046725;28;3300;-49
2023/05/04 02:38:36;;;;;;;;;;;;;;;;;;1046602;28;4027;-52
2023/05/04 02:39:07;;;;;;;;;;;;;;;;;;1047644;28;2856;-49
2023/05/04 02:39:37;;;;;;;;;;;;;;;;;;1046226;28;4154;-51
2023/05/04 02:40:07;;;;;;;;;;;;;;;;;;1047332;28;1693;-55
2023/05/04 02:40:38;;;;;;;;;;;;;;;;;;1046945;28;3781;-55
2023/05/04 02:41:08;;;;;;;;;;;;;;;;;;1044531;28;2955;-50
2023/05/04 02:41:38;;;;;;;;;;;;;;;;;;1046550;28;3844;-51
2023/05/04 02:42:09;;;;;;;;;;;;;;;;;;1046497;28;1680;-53
2023/05/04 02:42:39;;;;;;;;;;;;;;;;;;1046978;28;4014;-51
2023/05/04 02:43:09;;;;;;;;;;;;;;;;;;1045116;28;3012;-53
2023/05/04 02:43:39;;;;;;;;;;;;;;;;;;1047176;28;3917;-52
2023/05/04 02:44:10;;;;;;;;;;;;;;;;;;1047639;28;1729;-53
2023/05/04 02:44:40;;;;;;;;;;;;;;;;;;1045262;28;3985;-52
2023/05/04 02:45:11;;;;;;;;;;;;;;;;;;1046636;28;2643;-55
2023/05/04 02:45:41;;;;;;;;;;;;;;;;;;1043538;28;4408;-50
2023/05/04 02:46:13;;;;;;;;;;;;;;;;;;1045689;28;2953;-53
2023/05/04 02:46:43;;;;;;;;;;;;;;;;;;1044649;28;3951;-53
2023/05/04 02:47:13;;;;;;;;;;;;;;;;;;1048168;28;1750;-52
2023/05/04 02:47:44;;;;;;;;;;;;;;;;;;1045554;28;3958;-52
2023/05/04 02:48:14;;;;;;;;;;;;;;;;;;1047351;28;2664;-50
2023/05/04 02:48:44;;;;;;;;;;;;;;;;;;1046996;28;3963;-49
2023/05/04 02:49:15;;;;;;;;;;;;;;;;;;1047769;28;1712;-50
2023/05/04 02:49:45;;;;;;;;;;;;;;;;;;1045708;28;4022;-55
2023/05/04 02:50:15;;;;;;;;;;;;;;;;;;1044482;28;2816;-51
2023/05/04 02:50:46;;;;;;;;;;;;;;;;;;1046755;28;4024;-49
2023/05/04 02:51:17;;;;;;;;;;;;;;;;;;1048037;28;2670;-48
2023/05/04 02:51:47;;;;;;;;;;;;;;;;;;1045596;28;4060;-51
2023/05/04 02:52:17;;;;;;;;;;;;;;;;;;1046413;28;2613;-56
2023/05/04 02:52:48;;;;;;;;;;;;;;;;;;1045430;28;3949;-50
2023/05/04 02:53:18;;;;;;;;;;;;;;;;;;1046503;28;3074;-52
2023/05/04 02:53:48;;;;;;;;;;;;;;;;;;1046240;28;4032;-54
2023/05/04 02:54:18;;;;;;;;;;;;;;;;;;1045604;28;2961;-52
2023/05/04 02:54:49;;;;;;;;;;;;;;;;;;1054183;28;3909;-49
2023/05/04 02:55:19;;;;;;;;;;;;;;;;;;1054360;28;1787;-53
2023/05/04 02:55:49;;;;;;;;;;;;;;;;;;1053158;28;4425;-51
2023/05/04 02:56:20;;;;;;;;;;;;;;;;;;1054385;28;1900;-53
2023/05/04 02:56:50;;;;;;;;;;;;;;;;;;1047099;28;3899;-55
2023/05/04 02:57:20;;;;;;;;;;;;;;;;;;1047465;28;1952;-53
2023/05/04 02:57:50;;;;;;;;;;;;;;;;;;1046633;28;3874;-50
2023/05/04 02:58:21;;;;;;;;;;;;;;;;;;1047139;28;1869;-56
2023/05/04 02:58:51;;;;;;;;;;;;;;;;;;1045939;28;4143;-51
2023/05/04 02:59:21;;;;;;;;;;;;;;;;;;1047313;28;1906;-53
2023/05/04 02:59:52;;;;;;;;;;;;;;;;;;1046395;28;3981;-50
2023/05/04 03:00:22;;;;;;;;;;;;;;;;;;1044175;28;2862;-51
2023/05/04 03:00:54;;;;;;;;;;;;;;;;;;1047838;28;4035;-53
2023/05/04 03:01:24;;;;;;;;;;;;;;;;;;1047025;28;1715;-50
2023/05/04 03:01:55;;;;;;;;;;;;;;;;;;1045416;28;3955;-52
2023/05/04 03:02:25;;;;;;;;;;;;;;;;;;1047036;28;3252;-49
2023/05/04 03:02:56;;;;;;;;;;;;;;;;;;1046512;28;3934;-52
2023/05/04 03:03:26;;;;;;;;;;;;;;;;;;1047364;28;2602;-52
2023/05/04 03:03:56;;;;;;;;;;;;;;;;;;1045577;28;4066;-51
2023/05/04 03:04:26;;;;;;;;;;;;;;;;;;1046599;28;2338;-48
2023/05/04 03:04:57;;;;;;;;;;;;;;;;;;1047052;28;3970;-48
2023/05/04 03:05:27;;;;;;;;;;;;;;;;;;1047924;28;1678;-50
2023/05/04 03:05:57;;;;;;;;;;;;;;;;;;1045549;28;3857;-54
2023/05/04 03:06:27;;;;;;;;;;;;;;;;;;1047724;28;1720;-54
2023/05/04 03:06:58;;;;;;;;;;;;;;;;;;1045517;28;3953;-51
2023/05/04 03:07:28;;;;;;;;;;;;;;;;;;1047663;28;1691;-53
2023/05/04 03:07:59;;;;;;;;;;;;;;;;;;1044563;28;3767;-48
2023/05/04 03:08:29;;;;;;;;;;;;;;;;;;1045464;28;2935;-52
2023/05/04 03:09:00;;;;;;;;;;;;;;;;;;1045048;28;3768;-55
2023/05/04 03:09:30;;;;;;;;;;;;;;;;;;1048367;28;1796;-50
2023/05/04 03:10:01;;;;;;;;;;;;;;;;;;1046480;28;3888;-49
2023/05/04 03:10:31;;;;;;;;;;;;;;;;;;1044626;28;2932;-53
2023/05/04 03:11:01;;;;;;;;;;;;;;;;;;1046458;28;4163;-49
2023/05/04 03:11:32;;;;;;;;;;;;;;;;;;1047068;28;1706;-53
2023/05/04 03:12:03;;;;;;;;;;;;;;;;;;1046931;28;3694;-53
2023/05/04 03:12:33;;;;;;;;;;;;;;;;;;1046345;28;4133;-51
2023/05/04 03:13:04;;;;;;;;;;;;;;;;;;1047463;28;3080;-52
2023/05/04 03:13:35;;;;;;;;;;;;;;;;;;1045388;28;3966;-49
2023/05/04 03:14:05;;;;;;;;;;;;;;;;;;1044961;28;3386;-51
2023/05/04 03:14:35;;;;;;;;;;;;;;;;;;1045403;28;3776;-50
2023/05/04 03:15:06;;;;;;;;;;;;;;;;;;1046522;28;1959;-49
2023/05/04 03:15:36;;;;;;;;;;;;;;;;;;1045961;28;3958;-49
2023/05/04 03:16:06;;;;;;;;;;;;;;;;;;1047745;28;3251;-53
2023/05/04 03:16:37;;;;;;;;;;;;;;;;;;1046407;28;3779;-52
2023/05/04 03:17:07;;;;;;;;;;;;;;;;;;1046894;28;2963;-53
2023/05/04 03:17:37;;;;;;;;;;;;;;;;;;1047251;28;4058;-54
2023/05/04 03:18:08;;;;;;;;;;;;;;;;;;1047343;28;1699;-52
2023/05/04 03:18:38;;;;;;;;;;;;;;;;;;1047074;28;4082;-52
2023/05/04 03:19:08;;;;;;;;;;;;;;;;;;1046364;28;2918;-50
2023/05/04 03:19:38;;;;;;;;;;;;;;;;;;1047108;28;4123;-49
2023/05/04 03:20:09;;;;;;;;;;;;;;;;;;1046812;28;3117;-51
2023/05/04 03:20:39;;;;;;;;;;;;;;;;;;1045734;28;4389;-52
2023/05/04 03:21:10;;;;;;;;;;;;;;;;;;1045073;28;2893;-54
2023/05/04 03:21:40;;;;;;;;;;;;;;;;;;1047244;28;3787;-49
2023/05/04 03:22:10;;;;;;;;;;;;;;;;;;1047021;28;1817;-56
2023/05/04 03:22:41;;;;;;;;;;;;;;;;;;1046774;28;3780;-51
2023/05/04 03:23:11;;;;;;;;;;;;;;;;;;1045208;28;2912;-53
2023/05/04 03:23:41;;;;;;;;;;;;;;;;;;1047217;28;5565;-50
2023/05/04 03:24:11;;;;;;;;;;;;;;;;;;1044610;28;2965;-51
2023/05/04 03:24:42;;;;;;;;;;;;;;;;;;1047215;28;3890;-50
2023/05/04 03:25:12;;;;;;;;;;;;;;;;;;1047034;28;1882;-51
2023/05/04 03:25:42;;;;;;;;;;;;;;;;;;1047263;28;3898;-53
2023/05/04 03:26:12;;;;;;;;;;;;;;;;;;1046330;28;2971;-49
2023/05/04 03:26:43;;;;;;;;;;;;;;;;;;1047863;28;3995;-52
2023/05/04 03:27:13;;;;;;;;;;;;;;;;;;1045969;28;1699;-52
2023/05/04 03:27:43;;;;;;;;;;;;;;;;;;1047185;28;4022;-49
2023/05/04 03:28:14;;;;;;;;;;;;;;;;;;1045963;28;2908;-48
2023/05/04 03:28:44;;;;;;;;;;;;;;;;;;1045911;28;4084;-55
2023/05/04 03:29:14;;;;;;;;;;;;;;;;;;1046363;28;1854;-48
2023/05/04 03:29:44;;;;;;;;;;;;;;;;;;1048465;28;4429;-53
2023/05/04 03:30:15;;;;;;;;;;;;;;;;;;1046038;28;2861;-50
2023/05/04 03:30:46;;;;;;;;;;;;;;;;;;1045167;28;4068;-50
2023/05/04 03:31:16;;;;;;;;;;;;;;;;;;1046595;28;2867;-54
2023/05/04 03:31:46;;;;;;;;;;;;;;;;;;1044624;28;4124;-53
2023/05/04 03:32:16;;;;;;;;;;;;;;;;;;1045679;28;2946;-54
2023/05/04 03:32:47;;;;;;;;;;;;;;;;;;1046142;28;3906;-51
2023/05/04 03:33:17;;;;;;;;;;;;;;;;;;1046946;28;1879;-53